Time;durP1;ratioP1;P1;durP2;ratioP2;P2;SDS_P1;SDS_P2;PMS_P1;PMS_P2;Temp;Humidity;BMP_temperature;BMP_pressure;BME280_temperature;BME280_humidity;BME280_pressure;Samples;Min_cycle;Max_cycle;Signal;HPM_P1;HPM_P2
2023/10/05 00:00:46;;;;;;;3.25;1.33;;;;;;;5.58;100.00;93970.84;2085644;28;20502;-82
2023/10/05 00:02:08;;;;;;;4.60;1.58;;;;;;;5.66;100.00;93974.31;2088169;28;20021;-83
2023/10/05 00:03:10;;;;;;;1.42;1.15;;;;;;;5.62;100.00;93976.97;2100976;28;20109;-82
2023/10/05 00:04:15;;;;;;;4.93;1.60;;;;;;;5.55;100.00;93976.88;2084229;28;20090;-82
2023/10/05 00:05:16;;;;;;;3.10;1.45;;;;;;;5.69;100.00;93974.38;2092423;28;20494;-81
2023/10/05 00:06:23;;;;;;;2.65;1.58;;;;;;;5.75;100.00;93978.22;2093458;28;20024;-83
2023/10/05 00:07:26;;;;;;;2.03;1.30;;;;;;;5.73;100.00;93977.06;2087455;28;20039;-81
2023/10/05 00:08:28;;;;;;;1.85;1.40;;;;;;;5.73;100.00;93977.81;2090312;28;20024;-83
2023/10/05 00:09:29;;;;;;;3.65;1.45;;;;;;;5.71;100.00;93981.97;2081769;28;20053;-81
2023/10/05 00:10:33;;;;;;;2.45;1.50;;;;;;;5.73;100.00;93985.00;2089316;28;20078;-81
2023/10/05 00:11:39;;;;;;;3.25;1.42;;;;;;;5.58;100.00;93983.34;2082704;28;20021;-83
2023/10/05 00:12:40;;;;;;;2.63;1.52;;;;;;;5.53;100.00;93981.75;2089716;28;20175;-81
2023/10/05 00:13:44;;;;;;;2.90;1.50;;;;;;;5.50;100.00;93988.56;2090427;28;20068;-82
2023/10/05 00:14:48;;;;;;;2.65;1.33;;;;;;;5.53;100.00;93981.75;2096783;28;20020;-80
2023/10/05 00:15:50;;;;;;;2.13;1.50;;;;;;;5.53;100.00;93977.25;2084468;28;20017;-80
2023/10/05 00:16:54;;;;;;;4.65;1.50;;;;;;;5.63;100.00;93981.13;2086948;28;20055;-82
2023/10/05 00:17:55;;;;;;;3.40;1.73;;;;;;;5.54;100.00;93978.75;2084993;28;20067;-82
2023/10/05 00:18:56;;;;;;;2.70;1.58;;;;;;;5.56;100.00;93975.75;2087304;28;20091;-83
2023/10/05 00:19:58;;;;;;;2.17;1.40;;;;;;;5.50;100.00;93975.31;2094757;28;20017;-83
2023/10/05 00:21:00;;;;;;;3.17;1.63;;;;;;;5.45;100.00;93977.53;2096953;28;20393;-81
2023/10/05 00:22:02;;;;;;;2.22;1.35;;;;;;;5.49;100.00;93976.44;2104903;28;20034;-81
2023/10/05 00:23:06;;;;;;;3.95;1.50;;;;;;;5.49;100.00;93973.78;2089652;28;20055;-81
2023/10/05 00:24:08;;;;;;;2.30;1.48;;;;;;;5.54;100.00;93984.06;2090664;28;20055;-83
2023/10/05 00:25:10;;;;;;;2.20;1.50;;;;;;;5.50;100.00;93987.81;2085559;28;20065;-81
2023/10/05 00:26:11;;;;;;;4.13;1.60;;;;;;;5.43;100.00;93979.75;2098014;28;20036;-82
2023/10/05 00:27:20;;;;;;;2.30;1.30;;;;;;;5.47;100.00;93985.88;2084031;28;20132;-81
2023/10/05 00:28:24;;;;;;;5.07;1.67;;;;;;;5.40;100.00;93975.94;2095202;28;20036;-80
2023/10/05 00:29:28;;;;;;;3.33;1.73;;;;;;;5.28;100.00;93982.25;2081725;28;20022;-81
2023/10/05 00:30:29;;;;;;;2.55;1.58;;;;;;;5.40;100.00;93983.13;2085906;28;20090;-82
2023/10/05 00:31:32;;;;;;;2.53;1.48;;;;;;;5.42;100.00;93981.66;2097690;28;20024;-82
2023/10/05 00:32:47;;;;;;;3.67;1.40;;;;;;;5.41;100.00;93985.44;2104709;28;20393;-83
2023/10/05 00:33:48;;;;;;;1.92;1.48;;;;;;;5.40;100.00;93978.59;2091053;28;20017;-82
2023/10/05 00:35:08;;;;;;;2.55;1.60;;;;;;;5.44;100.00;93983.94;2091437;28;20386;-81
2023/10/05 00:36:13;;;;;;;1.98;1.30;;;;;;;5.40;100.00;93972.50;2088326;28;20119;-82
2023/10/05 00:37:14;;;;;;;3.85;1.35;;;;;;;5.45;100.00;93970.31;2091992;28;20526;-82
2023/10/05 00:38:16;;;;;;;2.05;1.30;;;;;;;5.32;100.00;93971.69;2100930;28;20032;-83
2023/10/05 00:39:21;;;;;;;1.90;1.38;;;;;;;5.40;100.00;93972.50;2096353;28;20535;-81
2023/10/05 00:40:42;;;;;;;1.80;1.13;;;;;;;5.42;100.00;93965.75;2095756;28;20422;-81
2023/10/05 00:41:43;;;;;;;2.30;1.40;;;;;;;5.45;100.00;93965.03;2086445;28;20148;-79
2023/10/05 00:42:44;;;;;;;1.58;1.40;;;;;;;5.37;100.00;93976.66;2082248;28;20074;-83
2023/10/05 00:43:46;;;;;;;2.22;1.40;;;;;;;5.35;100.00;93968.28;2093092;28;20037;-82
2023/10/05 00:44:47;;;;;;;2.58;1.48;;;;;;;5.25;100.00;93966.28;2092072;28;20108;-81
2023/10/05 00:45:48;;;;;;;3.28;1.40;;;;;;;5.40;100.00;93965.34;2079169;28;20034;-81
2023/10/05 00:46:59;;;;;;;3.53;1.58;;;;;;;5.42;100.00;93957.03;2090211;28;20025;-84
2023/10/05 00:48:12;;;;;;;2.63;1.40;;;;;;;5.37;100.00;93960.00;2097839;28;20062;-82
2023/10/05 00:49:14;;;;;;;2.55;1.58;;;;;;;5.30;100.00;93971.28;2096887;28;20020;-81
2023/10/05 00:50:15;;;;;;;3.20;1.25;;;;;;;5.35;100.00;93963.00;2079584;28;20063;-81
2023/10/05 00:51:24;;;;;;;1.98;1.33;;;;;;;5.41;100.00;93964.22;2088884;28;20017;-83
2023/10/05 00:52:29;;;;;;;2.15;1.17;;;;;;;5.43;100.00;93955.91;2081721;28;20196;-81
2023/10/05 00:53:32;;;;;;;2.15;1.30;;;;;;;5.48;100.00;93956.31;2081634;28;20783;-82
2023/10/05 00:54:34;;;;;;;1.95;1.33;;;;;;;5.41;100.00;93955.50;2097142;28;20090;-81
2023/10/05 00:55:36;;;;;;;3.15;1.50;;;;;;;5.45;100.00;93949.13;2105789;28;20020;-81
2023/10/05 00:56:41;;;;;;;2.92;1.60;;;;;;;5.33;100.00;93951.25;2105637;28;20473;-83
2023/10/05 00:57:44;;;;;;;1.38;1.08;;;;;;;5.29;100.00;93946.66;2093761;28;20025;-81
2023/10/05 00:58:48;;;;;;;1.95;1.35;;;;;;;5.41;100.00;93939.59;2097037;28;20446;-83
2023/10/05 01:01:08;;;;;;;2.42;1.30;;;;;;;5.44;100.00;93941.50;2104693;28;20032;-82
2023/10/05 01:02:15;;;;;;;3.53;1.33;;;;;;;5.42;100.00;93936.56;2092936;28;20473;-81
2023/10/05 01:04:23;;;;;;;2.08;1.50;;;;;;;5.33;100.00;93938.00;2103600;28;20104;-83
2023/10/05 01:05:34;;;;;;;3.55;1.50;;;;;;;5.27;100.00;93934.91;2102914;28;20115;-80
2023/10/05 01:06:48;;;;;;;1.92;1.15;;;;;;;5.38;100.00;93930.47;2082311;28;20033;-83
2023/10/05 01:07:49;;;;;;;2.15;1.10;;;;;;;5.37;100.00;93930.84;2090537;28;20094;-81
2023/10/05 01:08:59;;;;;;;3.22;1.30;;;;;;;5.42;100.00;93918.00;2081179;28;20096;-82
2023/10/05 01:11:14;;;;;;;1.52;1.20;;;;;;;5.37;100.00;93925.53;2086384;28;20029;-83
2023/10/05 01:12:22;;;;;;;3.03;1.50;;;;;;;5.42;100.00;93922.56;2089814;28;20029;-83
2023/10/05 01:13:32;;;;;;;1.88;1.40;;;;;;;5.35;100.00;93909.22;2098610;28;20036;-82
2023/10/05 01:14:46;;;;;;;1.63;1.13;;;;;;;5.29;100.00;93914.84;2105418;28;20024;-82
2023/10/05 01:15:50;;;;;;;1.83;1.20;;;;;;;5.31;100.00;93911.81;2094062;28;20100;-81
2023/10/05 01:16:54;;;;;;;3.97;1.67;;;;;;;5.23;100.00;93900.41;2101386;28;20052;-83
2023/10/05 01:17:56;;;;;;;1.40;1.10;;;;;;;5.32;100.00;93907.31;2100112;28;20164;-83
2023/10/05 01:18:57;;;;;;;3.20;1.38;;;;;;;5.32;100.00;93907.31;2102048;28;20089;-82
2023/10/05 01:20:11;;;;;;;2.72;1.38;;;;;;;5.18;100.00;93910.53;2087859;28;20063;-81
2023/10/05 01:21:13;;;;;;;4.03;1.30;;;;;;;5.33;100.00;93903.53;2092178;28;20021;-83
2023/10/05 01:22:21;;;;;;;2.65;1.40;;;;;;;5.46;100.00;93908.22;2088826;28;20021;-82
2023/10/05 01:23:28;;;;;;;2.03;1.60;;;;;;;5.56;100.00;93907.56;2091244;28;20052;-82
2023/10/05 01:24:29;;;;;;;2.35;1.48;;;;;;;5.53;100.00;93908.31;2089027;28;20486;-82
2023/10/05 01:25:30;;;;;;;2.22;1.40;;;;;;;5.48;100.00;93902.53;2080520;28;20029;-83
2023/10/05 01:26:37;;;;;;;2.75;1.50;;;;;;;5.43;100.00;93900.97;2080661;28;20026;-83
2023/10/05 01:27:38;;;;;;;1.95;1.40;;;;;;;5.34;100.00;93907.69;2081373;28;20418;-81
2023/10/05 01:28:43;;;;;;;2.83;1.60;;;;;;;5.42;100.00;93909.31;2089063;28;20052;-82
2023/10/05 01:29:44;;;;;;;1.65;1.20;;;;;;;5.47;100.00;93908.97;2112236;28;20102;-83
2023/10/05 01:30:45;;;;;;;3.63;1.48;;;;;;;5.47;100.00;93904.44;2094005;28;20029;-83
2023/10/05 01:31:46;;;;;;;3.22;1.42;;;;;;;5.43;100.00;93906.28;2072740;28;20057;-80
2023/10/05 01:32:48;;;;;;;2.63;1.40;;;;;;;5.40;100.00;93909.69;2078402;28;20022;-83
2023/10/05 01:33:50;;;;;;;1.70;1.00;;;;;;;5.27;100.00;93898.56;2085151;28;20437;-81
2023/10/05 01:34:51;;;;;;;1.67;1.17;;;;;;;5.39;100.00;93905.47;2083388;28;20171;-81
2023/10/05 01:35:54;;;;;;;2.20;1.30;;;;;;;5.48;100.00;93905.19;2078060;28;20373;-82
2023/10/05 01:36:55;;;;;;;2.53;1.33;;;;;;;5.34;100.00;93907.69;2084236;28;20481;-85
2023/10/05 01:37:59;;;;;;;3.80;1.40;;;;;;;5.39;100.00;93910.78;2086727;28;20036;-83
2023/10/05 01:39:08;;;;;;;2.60;1.25;;;;;;;5.33;100.00;93909.59;2086435;28;20029;-80
2023/10/05 01:40:30;;;;;;;2.33;1.30;;;;;;;5.22;100.00;93912.13;2089939;28;20032;-82
2023/10/05 01:41:31;;;;;;;2.08;1.20;;;;;;;5.23;100.00;93913.66;2078304;28;20032;-81
2023/10/05 01:42:33;;;;;;;5.20;1.30;;;;;;;5.36;100.00;93910.75;2080308;28;20029;-83
2023/10/05 01:43:34;;;;;;;1.60;1.30;;;;;;;5.36;100.00;93908.13;2089074;28;20028;-82
2023/10/05 01:44:37;;;;;;;2.42;1.35;;;;;;;5.25;100.00;93914.03;2085528;28;20024;-82
2023/10/05 01:45:38;;;;;;;2.58;1.38;;;;;;;5.22;100.00;93909.47;2088411;28;20049;-83
2023/10/05 01:46:42;;;;;;;3.17;1.52;;;;;;;5.23;100.00;93905.69;2072714;28;20116;-82
2023/10/05 01:47:46;;;;;;;2.35;1.45;;;;;;;5.15;100.00;93908.63;2073449;28;20022;-82
2023/10/05 01:48:47;;;;;;;3.00;1.30;;;;;;;5.24;100.00;93915.19;2073027;28;20080;-82
2023/10/05 01:49:51;;;;;;;2.05;1.27;;;;;;;5.18;100.00;93916.63;2080569;28;20025;-82
2023/10/05 01:50:52;;;;;;;3.17;1.67;;;;;;;5.21;100.00;93912.47;2082427;28;20059;-83
2023/10/05 01:51:56;;;;;;;2.35;1.30;;;;;;;5.21;100.00;93912.47;2081334;28;20343;-81
2023/10/05 01:53:06;;;;;;;2.70;1.48;;;;;;;5.16;100.00;93912.81;2084725;28;20045;-82
2023/10/05 01:54:16;;;;;;;1.77;1.40;;;;;;;5.12;100.00;93912.75;2087743;28;20378;-80
2023/10/05 01:55:18;;;;;;;1.90;1.38;;;;;;;5.25;100.00;93900.03;2090035;28;20030;-84
2023/10/05 01:56:21;;;;;;;1.83;1.33;;;;;;;4.98;100.00;93902.00;2083831;28;20025;-82
2023/10/05 01:57:22;;;;;;;2.15;1.40;;;;;;;4.98;100.00;93894.03;2095584;28;20083;-82
2023/10/05 01:58:24;;;;;;;4.20;1.50;;;;;;;4.87;100.00;93899.19;2094307;28;20064;-82
2023/10/05 01:59:27;;;;;;;3.03;1.30;;;;;;;5.00;100.00;93894.44;2101288;28;20031;-82
2023/10/05 02:00:28;;;;;;;1.70;1.27;;;;;;;4.95;100.00;93890.22;2104708;28;20020;-81
2023/10/05 02:01:29;;;;;;;2.42;1.15;;;;;;;4.97;100.00;93889.88;2097324;28;20016;-82
2023/10/05 02:02:32;;;;;;;2.92;1.52;;;;;;;4.90;100.00;93882.59;2105146;28;20373;-82
2023/10/05 02:03:33;;;;;;;2.38;1.58;;;;;;;4.94;100.00;93888.69;2105261;28;20057;-82
2023/10/05 02:04:38;;;;;;;3.25;1.27;;;;;;;5.00;100.00;93887.28;2086839;28;20051;-80
2023/10/05 02:05:39;;;;;;;3.70;1.27;;;;;;;5.03;100.00;93886.53;2097549;28;20020;-82
2023/10/05 02:06:45;;;;;;;3.47;1.50;;;;;;;4.98;100.00;93880.81;2081156;28;20116;-83
2023/10/05 02:07:58;;;;;;;1.45;1.20;;;;;;;4.90;100.00;93877.28;2088505;28;20060;-82
2023/10/05 02:08:59;;;;;;;7.22;1.77;;;;;;;4.90;100.00;93877.28;2105499;28;20023;-84
2023/10/05 02:09:59;;;;;;;4.32;1.42;;;;;;;4.92;100.00;93883.00;2098479;28;20075;-83
2023/10/05 02:11:04;;;;;;;3.97;1.55;;;;;;;4.93;100.00;93887.19;2081407;28;20056;-81
2023/10/05 02:12:06;;;;;;;3.30;1.25;;;;;;;4.87;100.00;93872.72;2065262;28;20033;-81
2023/10/05 02:13:12;;;;;;;3.05;1.60;;;;;;;4.89;100.00;93877.66;2088865;28;20044;-83
2023/10/05 02:14:16;;;;;;;2.83;1.33;;;;;;;4.90;100.00;93869.34;2092279;28;20036;-84
2023/10/05 02:15:17;;;;;;;3.15;1.33;;;;;;;4.86;100.00;93876.50;2086935;28;20191;-82
2023/10/05 02:16:20;;;;;;;2.50;0.90;;;;;;;4.83;100.00;93879.88;2074267;28;20514;-84
2023/10/05 02:17:28;;;;;;;3.65;1.13;;;;;;;4.77;100.00;93878.66;2089688;28;20032;-82
2023/10/05 02:18:32;;;;;;;2.13;1.33;;;;;;;4.76;100.00;93883.19;2080670;28;20025;-83
2023/10/05 02:19:36;;;;;;;2.80;1.45;;;;;;;4.72;100.00;93890.31;2088399;28;20067;-82
2023/10/05 02:20:41;;;;;;;3.55;1.40;;;;;;;4.78;100.00;93882.81;2073877;28;20026;-82
2023/10/05 02:21:43;;;;;;;2.80;1.33;;;;;;;4.76;100.00;93891.13;2081245;28;20029;-83
2023/10/05 02:22:47;;;;;;;3.95;1.40;;;;;;;4.78;100.00;93891.56;2081260;28;20033;-83
2023/10/05 02:23:57;;;;;;;3.70;1.65;;;;;;;4.77;100.00;93889.25;2073271;28;20040;-79
2023/10/05 02:24:58;;;;;;;2.10;1.38;;;;;;;4.71;100.00;93893.34;2078792;28;20028;-83
2023/10/05 02:26:01;;;;;;;1.85;1.27;;;;;;;4.77;100.00;93897.19;2080272;28;20045;-80
2023/10/05 02:28:04;;;;;;;3.70;1.60;;;;;;;4.72;100.00;93892.22;2087208;28;20021;-84
2023/10/05 02:29:13;;;;;;;2.38;1.30;;;;;;;4.69;100.00;93888.38;2094046;28;20086;-84
2023/10/05 02:30:15;;;;;;;1.80;1.30;;;;;;;4.77;100.00;93887.34;2106368;28;20030;-80
2023/10/05 02:31:20;;;;;;;2.17;1.20;;;;;;;4.68;100.00;93883.44;2091443;28;20140;-81
2023/10/05 02:32:27;;;;;;;2.40;1.40;;;;;;;4.69;100.00;93874.38;2091820;28;20028;-81
2023/10/05 02:33:31;;;;;;;2.38;1.50;;;;;;;4.61;100.00;93881.50;2089857;28;20094;-82
2023/10/05 02:36:40;;;;;;;1.60;1.10;;;;;;;4.66;100.00;93883.81;2111179;28;20089;-82
2023/10/05 02:37:22;;;;;;;2.10;1.10;;;;;;;4.56;100.00;93879.13;2100630;28;20036;-82
2023/10/05 02:38:23;;;;;;;3.08;1.30;;;;;;;4.63;100.00;93879.22;2098967;28;20040;-82
2023/10/05 02:39:24;;;;;;;2.35;1.42;;;;;;;4.68;100.00;93878.16;2096317;28;20496;-82
2023/10/05 02:40:37;;;;;;;1.55;1.25;;;;;;;4.60;100.00;93871.25;2095703;28;20036;-83
2023/10/05 02:41:38;;;;;;;1.92;1.70;;;;;;;4.68;100.00;93873.63;2082373;28;20025;-82
2023/10/05 02:42:43;;;;;;;2.00;1.30;;;;;;;4.70;100.00;93874.03;2096109;28;20032;-82
2023/10/05 02:43:52;;;;;;;2.28;1.30;;;;;;;4.66;100.00;93880.41;2097507;28;20048;-82
2023/10/05 02:44:53;;;;;;;1.75;1.08;;;;;;;4.63;100.00;93873.19;2092920;28;20767;-81
2023/10/05 02:46:01;;;;;;;1.52;1.10;;;;;;;4.65;100.00;93873.56;2080354;28;20100;-81
2023/10/05 02:47:08;;;;;;;2.13;1.20;;;;;;;4.65;100.00;93871.69;2082263;28;20091;-83
2023/10/05 02:48:10;;;;;;;2.75;1.27;;;;;;;4.64;100.00;93872.81;2100401;28;20020;-81
2023/10/05 02:49:18;;;;;;;2.10;1.10;;;;;;;4.68;100.00;93880.81;2080612;28;20025;-84
2023/10/05 02:50:19;;;;;;;1.58;1.20;;;;;;;4.64;100.00;93883.41;2074153;28;20427;-83
2023/10/05 02:51:20;;;;;;;1.88;1.23;;;;;;;4.61;100.00;93878.84;2089515;28;20201;-84
2023/10/05 02:52:21;;;;;;;1.60;1.10;;;;;;;4.57;100.00;93875.38;2095415;28;20119;-82
2023/10/05 02:53:25;;;;;;;1.40;0.93;;;;;;;4.62;100.00;93874.31;2091708;28;20029;-82
2023/10/05 02:54:27;;;;;;;1.60;1.23;;;;;;;4.72;100.00;93877.09;2093899;28;20021;-82
2023/10/05 02:55:35;;;;;;;2.03;1.30;;;;;;;4.83;100.00;93866.63;2088006;28;20017;-82
2023/10/05 02:56:37;;;;;;;2.50;1.23;;;;;;;4.92;100.00;93872.41;2090336;28;20107;-82
2023/10/05 02:57:39;;;;;;;2.00;1.40;;;;;;;4.85;100.00;93874.97;2097242;28;20028;-82
2023/10/05 02:58:40;;;;;;;2.13;1.30;;;;;;;4.85;100.00;93871.56;2100644;28;20020;-82
2023/10/05 02:59:44;;;;;;;1.50;1.10;;;;;;;4.93;100.00;93870.53;2099889;28;20028;-83
2023/10/05 03:00:45;;;;;;;2.33;1.23;;;;;;;4.89;100.00;93870.47;2111772;28;20051;-82
2023/10/05 03:01:47;;;;;;;1.73;1.30;;;;;;;4.91;100.00;93876.16;2104819;28;20032;-83
2023/10/05 03:02:50;;;;;;;2.45;1.38;;;;;;;4.96;100.00;93867.94;2088554;28;20059;-82
2023/10/05 03:03:51;;;;;;;2.15;1.23;;;;;;;4.96;100.00;93872.44;2088918;28;20414;-83
2023/10/05 03:04:58;;;;;;;2.20;1.08;;;;;;;5.02;100.00;93871.78;2093005;28;20056;-82
2023/10/05 03:05:59;;;;;;;2.90;1.30;;;;;;;5.11;100.00;93868.84;2104952;28;20111;-82
2023/10/05 03:07:02;;;;;;;2.03;1.00;;;;;;;5.13;100.00;93871.13;2096698;28;20128;-84
2023/10/05 03:08:04;;;;;;;3.17;1.10;;;;;;;5.04;100.00;93876.69;2093408;28;20731;-82
2023/10/05 03:09:08;;;;;;;2.85;1.42;;;;;;;5.06;100.00;93877.13;2105151;28;20027;-80
2023/10/05 03:10:16;;;;;;;2.17;1.48;;;;;;;5.11;100.00;93868.84;2096927;28;20032;-83
2023/10/05 03:11:18;;;;;;;2.33;1.20;;;;;;;5.02;100.00;93874.41;2092647;28;20024;-82
2023/10/05 03:12:25;;;;;;;4.53;1.35;;;;;;;4.99;100.00;93872.47;2103202;28;20024;-82
2023/10/05 03:13:27;;;;;;;2.40;1.40;;;;;;;5.09;100.00;93865.00;2100576;28;20028;-82
2023/10/05 03:14:28;;;;;;;3.25;1.23;;;;;;;5.18;100.00;93862.84;2089388;28;20056;-82
2023/10/05 03:15:29;;;;;;;2.25;1.20;;;;;;;5.15;100.00;93861.69;2104402;28;20077;-84
2023/10/05 03:16:30;;;;;;;1.70;1.02;;;;;;;5.16;100.00;93857.91;2091639;28;20554;-81
2023/10/05 03:17:32;;;;;;;2.78;1.50;;;;;;;5.10;100.00;93866.56;2089180;28;20112;-83
2023/10/05 03:18:37;;;;;;;2.85;1.40;;;;;;;5.10;100.00;93867.31;2083213;28;20360;-81
2023/10/05 03:19:39;;;;;;;1.20;0.98;;;;;;;5.20;100.00;93855.31;2085192;28;20522;-84
2023/10/05 03:20:40;;;;;;;1.98;1.08;;;;;;;5.28;100.00;93855.00;2090104;28;20479;-82
2023/10/05 03:21:45;;;;;;;2.90;1.42;;;;;;;5.28;100.00;93851.59;2106666;28;20113;-82
2023/10/05 03:22:46;;;;;;;2.65;1.20;;;;;;;5.30;100.00;93854.63;2096498;28;20107;-82
2023/10/05 03:23:48;;;;;;;1.63;1.30;;;;;;;5.33;100.00;93856.56;2090159;28;20466;-80
2023/10/05 03:24:48;;;;;;;2.22;1.15;;;;;;;5.29;100.00;93858.44;2089407;28;20028;-82
2023/10/05 03:25:53;;;;;;;4.03;1.38;;;;;;;5.30;100.00;93852.75;2089918;28;20078;-82
2023/10/05 03:26:56;;;;;;;1.67;1.23;;;;;;;5.34;100.00;93857.34;2082674;28;20843;-81
2023/10/05 03:27:57;;;;;;;1.75;1.10;;;;;;;5.40;100.00;93850.56;2087191;28;20033;-79
2023/10/05 03:29:00;;;;;;;3.28;1.30;;;;;;;5.37;100.00;93852.06;2083679;28;20025;-81
2023/10/05 03:30:06;;;;;;;2.50;1.50;;;;;;;5.40;100.00;93845.25;2090875;28;20111;-81
2023/10/05 03:31:32;;;;;;;2.13;1.20;;;;;;;5.30;100.00;93852.00;2098583;28;20369;-83
2023/10/05 03:32:35;;;;;;;2.65;1.17;;;;;;;5.29;100.00;93845.16;2115111;28;20137;-83
2023/10/05 03:33:36;;;;;;;2.67;1.13;;;;;;;5.41;100.00;93839.63;2091175;28;20489;-82
2023/10/05 03:34:37;;;;;;;1.77;1.25;;;;;;;5.40;100.00;93839.97;2102004;28;20055;-82
2023/10/05 03:35:45;;;;;;;3.72;1.33;;;;;;;5.44;100.00;93844.16;2105818;28;20020;-81
2023/10/05 03:36:50;;;;;;;2.30;1.30;;;;;;;5.54;100.00;93848.81;2096028;28;20488;-82
2023/10/05 03:37:52;;;;;;;2.65;1.70;;;;;;;5.46;100.00;93843.81;2094837;28;20481;-83
2023/10/05 03:38:56;;;;;;;3.17;1.55;;;;;;;5.34;100.00;93844.09;2082073;28;20025;-81
2023/10/05 03:41:13;;;;;;;3.25;1.33;;;;;;;5.48;100.00;93844.97;2103201;28;20033;-82
2023/10/05 03:42:23;;;;;;;3.65;1.40;;;;;;;5.51;100.00;93844.25;2106426;28;20050;-83
2023/10/05 03:43:24;;;;;;;1.98;1.10;;;;;;;5.53;100.00;93843.88;2097617;28;20020;-84
2023/10/05 03:44:26;;;;;;;2.63;1.20;;;;;;;5.48;100.00;93841.56;2106097;28;20024;-82
2023/10/05 03:45:28;;;;;;;1.88;1.27;;;;;;;5.45;100.00;93845.72;2114746;28;20031;-82
2023/10/05 03:46:29;;;;;;;2.13;1.42;;;;;;;5.51;100.00;93841.59;2097515;28;20407;-81
2023/10/05 03:47:40;;;;;;;1.00;0.90;;;;;;;5.46;100.00;93844.59;2088789;28;20025;-82
2023/10/05 03:48:42;;;;;;;6.13;1.65;;;;;;;5.42;100.00;93849.09;2090398;28;20363;-83
2023/10/05 03:49:54;;;;;;;4.22;1.42;;;;;;;5.49;100.00;93838.56;2098187;28;20106;-83
2023/10/05 03:50:55;;;;;;;1.90;1.27;;;;;;;5.54;100.00;93858.69;2089075;28;20028;-83
2023/10/05 03:51:56;;;;;;;2.13;1.30;;;;;;;5.59;100.00;93854.94;2096444;28;20066;-83
2023/10/05 03:52:58;;;;;;;1.40;1.15;;;;;;;5.56;100.00;93849.22;2095153;28;20071;-83
2023/10/05 03:53:59;;;;;;;3.53;1.67;;;;;;;5.51;100.00;93854.84;2097015;28;20051;-80
2023/10/05 03:55:01;;;;;;;1.73;1.40;;;;;;;5.41;100.00;93849.47;2093439;28;20024;-81
2023/10/05 03:56:02;;;;;;;3.03;1.30;;;;;;;5.53;100.00;93849.97;2089378;28;20019;-83
2023/10/05 03:57:10;;;;;;;1.75;1.08;;;;;;;5.44;100.00;93859.31;2092729;28;20033;-83
2023/10/05 03:58:11;;;;;;;1.77;1.10;;;;;;;5.46;100.00;93860.50;2100056;28;20027;-82
2023/10/05 03:59:12;;;;;;;1.38;1.17;;;;;;;5.50;100.00;93871.91;2095064;28;20047;-83
2023/10/05 04:00:34;;;;;;;1.35;1.00;;;;;;;5.55;100.00;93866.25;2092509;28;20025;-83
2023/10/05 04:01:35;;;;;;;3.63;1.27;;;;;;;5.51;100.00;93868.13;2086887;28;20475;-82
2023/10/05 04:02:37;;;;;;;2.00;1.30;;;;;;;5.44;100.00;93862.72;2105994;28;20035;-83
2023/10/05 04:03:42;;;;;;;2.45;1.38;;;;;;;5.47;100.00;93872.63;2102617;28;20048;-83
2023/10/05 04:04:43;;;;;;;1.92;1.30;;;;;;;5.48;100.00;93874.13;2096915;28;20047;-81
2023/10/05 04:05:44;;;;;;;2.35;1.10;;;;;;;5.46;100.00;93868.44;2097344;28;20090;-84
2023/10/05 04:06:47;;;;;;;1.58;1.20;;;;;;;5.38;100.00;93871.38;2096765;28;20032;-82
2023/10/05 04:07:49;;;;;;;1.92;1.15;;;;;;;5.44;100.00;93870.69;2099820;28;20028;-81
2023/10/05 04:08:55;;;;;;;2.00;1.10;;;;;;;5.71;100.00;93875.88;2086217;28;20069;-81
2023/10/05 04:10:03;;;;;;;3.40;1.17;;;;;;;5.74;100.00;93875.88;2100611;28;20024;-80
2023/10/05 04:11:04;;;;;;;1.58;1.15;;;;;;;5.80;100.00;93879.00;2098937;28;20436;-82
2023/10/05 04:12:10;;;;;;;3.50;1.02;;;;;;;5.79;100.00;93872.94;2105352;28;20384;-81
2023/10/05 04:13:11;;;;;;;1.27;1.05;;;;;;;5.75;100.00;93872.13;2093522;28;20100;-83
2023/10/05 04:14:13;;;;;;;2.20;1.40;;;;;;;5.79;100.00;93872.94;2096909;28;20032;-85
2023/10/05 04:15:18;;;;;;;2.17;1.30;;;;;;;5.79;100.00;93875.56;2079880;28;20022;-81
2023/10/05 04:16:22;;;;;;;3.90;1.60;;;;;;;5.64;100.00;93870.50;2092607;28;20062;-83
2023/10/05 04:17:23;;;;;;;3.05;1.40;;;;;;;5.56;100.00;93875.72;2096176;28;20358;-82
2023/10/05 04:18:24;;;;;;;1.90;1.23;;;;;;;5.65;100.00;93882.63;2090980;28;20021;-85
2023/10/05 04:19:25;;;;;;;4.93;1.40;;;;;;;5.70;100.00;93874.34;2104910;28;20102;-82
2023/10/05 04:20:29;;;;;;;3.22;1.50;;;;;;;5.69;100.00;93872.81;2098781;28;20029;-83
2023/10/05 04:21:31;;;;;;;2.92;1.52;;;;;;;5.75;100.00;93882.75;2097404;28;20024;-83
2023/10/05 04:22:32;;;;;;;2.53;1.27;;;;;;;5.79;100.00;93877.44;2098055;28;20039;-81
2023/10/05 04:23:33;;;;;;;2.17;1.30;;;;;;;5.79;100.00;93882.75;2089564;28;20437;-82
2023/10/05 04:24:34;;;;;;;1.83;1.25;;;;;;;5.82;100.00;93876.72;2089476;28;20025;-83
2023/10/05 04:25:35;;;;;;;2.00;1.30;;;;;;;5.80;100.00;93881.66;2097368;28;20473;-82
2023/10/05 04:26:44;;;;;;;2.75;1.20;;;;;;;5.86;100.00;93882.81;2093126;28;20047;-84
2023/10/05 04:27:48;;;;;;;3.97;1.50;;;;;;;5.94;100.00;93881.03;2091555;28;20036;-82
2023/10/05 04:28:52;;;;;;;2.45;1.33;;;;;;;5.89;100.00;93881.34;2083944;28;20123;-82
2023/10/05 04:29:53;;;;;;;3.17;1.60;;;;;;;5.87;100.00;93879.03;2091792;28;20456;-81
2023/10/05 04:30:57;;;;;;;4.85;1.40;;;;;;;5.81;100.00;93888.47;2085439;28;20060;-82
2023/10/05 04:31:58;;;;;;;3.42;1.38;;;;;;;5.82;100.00;93888.09;2092147;28;20082;-82
2023/10/05 04:32:59;;;;;;;3.05;1.65;;;;;;;5.78;100.00;93883.88;2085471;28;20027;-80
2023/10/05 04:34:00;;;;;;;2.58;1.40;;;;;;;5.83;100.00;93883.53;2098318;28;20016;-83
2023/10/05 04:35:10;;;;;;;1.25;0.98;;;;;;;5.94;100.00;93886.34;2096054;28;20120;-81
2023/10/05 04:36:13;;;;;;;3.10;1.52;;;;;;;5.94;100.00;93889.75;2085804;28;20017;-82
2023/10/05 04:37:14;;;;;;;2.08;1.20;;;;;;;5.84;100.00;93879.78;2093504;28;20539;-80
2023/10/05 04:38:14;;;;;;;3.35;1.27;;;;;;;5.87;100.00;93894.94;2093647;28;20024;-83
2023/10/05 04:39:26;;;;;;;2.13;1.40;;;;;;;5.93;100.00;93890.88;2088964;28;20024;-81
2023/10/05 04:40:27;;;;;;;1.73;1.40;;;;;;;5.86;100.00;93890.03;2088307;28;20100;-83
2023/10/05 04:41:33;;;;;;;3.60;1.65;;;;;;;5.88;100.00;93888.50;2094398;28;20037;-82
2023/10/05 04:42:34;;;;;;;2.78;1.45;;;;;;;5.86;100.00;93890.78;2088907;28;20021;-81
2023/10/05 04:43:38;;;;;;;3.08;1.40;;;;;;;5.89;100.00;93892.72;2105608;28;20040;-83
2023/10/05 04:44:40;;;;;;;2.67;1.45;;;;;;;5.84;100.00;93892.25;2097811;28;20055;-82
2023/10/05 04:45:42;;;;;;;2.90;1.77;;;;;;;5.87;100.00;93892.31;2103004;28;20028;-83
2023/10/05 04:46:47;;;;;;;5.68;2.63;;;;;;;5.74;100.00;93885.75;2105839;28;20419;-84
2023/10/05 04:47:48;;;;;;;7.40;3.45;;;;;;;5.77;100.00;93896.38;2095268;28;20035;-80
2023/10/05 04:48:55;;;;;;;6.85;4.35;;;;;;;5.78;100.00;93889.19;2080994;28;20481;-81
2023/10/05 04:49:58;;;;;;;4.78;3.13;;;;;;;5.82;100.00;93887.34;2090285;28;20025;-82
2023/10/05 04:51:01;;;;;;;5.50;2.30;;;;;;;5.88;100.00;93893.81;2097058;28;20086;-81
2023/10/05 04:52:19;;;;;;;2.63;1.80;;;;;;;5.99;100.00;93880.69;2080756;28;20029;-81
2023/10/05 04:53:20;;;;;;;2.53;1.60;;;;;;;5.99;100.00;93886.75;2097101;28;20016;-83
2023/10/05 04:54:25;;;;;;;3.05;1.40;;;;;;;5.95;100.00;93883.31;2105415;28;20038;-81
2023/10/05 04:55:41;;;;;;;2.70;1.58;;;;;;;6.03;100.00;93876.94;2100948;28;20024;-82
2023/10/05 04:57:55;;;;;;;5.22;1.50;;;;;;;6.00;100.00;93872.34;2086141;28;20099;-82
2023/10/05 05:01:04;;;;;;;2.20;1.48;;;;;;;6.14;100.00;93876.25;2095577;28;20031;-80
2023/10/05 05:01:46;;;;;;;2.95;1.38;;;;;;;6.09;100.00;93869.38;2098421;28;20214;-82
2023/10/05 05:03:05;;;;;;;2.38;1.23;;;;;;;6.14;100.00;93870.94;2086292;28;20029;-83
2023/10/05 05:05:52;;;;;;;3.80;1.40;;;;;;;6.20;100.00;93864.91;2088031;28;20118;-80
2023/10/05 05:07:16;;;;;;;4.28;1.60;;;;;;;6.25;100.00;93864.56;2106329;28;20062;-83
2023/10/05 05:08:17;;;;;;;2.88;1.48;;;;;;;6.25;100.00;93864.56;2106592;28;20103;-83
2023/10/05 05:09:18;;;;;;;2.88;1.67;;;;;;;6.21;100.00;93857.72;2090107;28;20021;-83
2023/10/05 05:10:20;;;;;;;5.05;1.48;;;;;;;6.22;100.00;93862.66;2091389;28;20024;-82
2023/10/05 05:11:25;;;;;;;1.52;1.23;;;;;;;6.24;100.00;93859.63;2097049;28;20024;-84
2023/10/05 05:12:28;;;;;;;4.80;1.70;;;;;;;6.17;100.00;93859.59;2090812;28;20024;-83
2023/10/05 05:13:29;;;;;;;3.00;1.45;;;;;;;6.17;100.00;93856.94;2082854;28;20463;-83
2023/10/05 05:14:44;;;;;;;3.08;1.67;;;;;;;6.10;100.00;93862.94;2097513;28;20033;-84